sensor_id;sensor_type;location;lat;lon;timestamp;P1;durP1;ratioP1;P2;durP2;ratioP2
15049;SDS011;7622;42.724;23.250;2023-03-19T00:01:35;7.67;;;5.70;;
15049;SDS011;7622;42.724;23.250;2023-03-19T00:04:02;7.83;;;5.10;;
15049;SDS011;7622;42.724;23.250;2023-03-19T00:06:29;5.57;;;5.07;;
15049;SDS011;7622;42.724;23.250;2023-03-19T00:08:56;6.93;;;5.37;;
15049;SDS011;7622;42.724;23.250;2023-03-19T00:11:22;10.40;;;5.73;;
15049;SDS011;7622;42.724;23.250;2023-03-19T00:13:49;8.00;;;5.67;;
15049;SDS011;7622;42.724;23.250;2023-03-19T00:16:18;11.33;;;6.50;;
15049;SDS011;7622;42.724;23.250;2023-03-19T00:18:44;10.00;;;6.30;;
15049;SDS011;7622;42.724;23.250;2023-03-19T00:21:12;10.93;;;6.67;;
15049;SDS011;7622;42.724;23.250;2023-03-19T00:23:39;8.37;;;6.40;;
15049;SDS011;7622;42.724;23.250;2023-03-19T00:26:06;8.20;;;6.03;;
15049;SDS011;7622;42.724;23.250;2023-03-19T00:28:32;7.73;;;5.67;;
15049;SDS011;7622;42.724;23.250;2023-03-19T00:31:10;7.53;;;5.73;;
15049;SDS011;7622;42.724;23.250;2023-03-19T00:33:40;9.27;;;5.20;;
15049;SDS011;7622;42.724;23.250;2023-03-19T00:36:07;7.10;;;5.30;;
15049;SDS011;7622;42.724;23.250;2023-03-19T00:38:35;9.83;;;5.13;;
15049;SDS011;7622;42.724;23.250;2023-03-19T00:41:03;8.03;;;5.70;;
15049;SDS011;7622;42.724;23.250;2023-03-19T00:43:31;8.00;;;5.63;;
15049;SDS011;7622;42.724;23.250;2023-03-19T00:45:58;11.37;;;5.67;;
15049;SDS011;7622;42.724;23.250;2023-03-19T00:48:25;7.53;;;5.50;;
15049;SDS011;7622;42.724;23.250;2023-03-19T00:50:53;14.00;;;7.93;;
15049;SDS011;7622;42.724;23.250;2023-03-19T00:53:20;12.80;;;7.10;;
15049;SDS011;7622;42.724;23.250;2023-03-19T00:55:47;10.67;;;6.90;;
15049;SDS011;7622;42.724;23.250;2023-03-19T00:58:14;13.27;;;7.10;;
15049;SDS011;7622;42.724;23.250;2023-03-19T01:00:40;12.43;;;6.97;;
15049;SDS011;7622;42.724;23.250;2023-03-19T01:03:07;9.30;;;6.13;;
15049;SDS011;7622;42.724;23.250;2023-03-19T01:05:34;12.27;;;6.93;;
15049;SDS011;7622;42.724;23.250;2023-03-19T01:08:02;9.07;;;6.17;;
15049;SDS011;7622;42.724;23.250;2023-03-19T01:10:31;8.27;;;6.03;;
15049;SDS011;7622;42.724;23.250;2023-03-19T01:12:58;13.00;;;6.00;;
15049;SDS011;7622;42.724;23.250;2023-03-19T01:15:25;12.70;;;7.27;;
15049;SDS011;7622;42.724;23.250;2023-03-19T01:17:52;10.90;;;7.33;;
15049;SDS011;7622;42.724;23.250;2023-03-19T01:20:19;9.37;;;7.17;;
15049;SDS011;7622;42.724;23.250;2023-03-19T01:22:48;13.03;;;7.63;;
15049;SDS011;7622;42.724;23.250;2023-03-19T01:25:17;9.40;;;6.70;;
15049;SDS011;7622;42.724;23.250;2023-03-19T01:27:43;12.40;;;7.67;;
15049;SDS011;7622;42.724;23.250;2023-03-19T01:30:10;11.67;;;7.40;;
15049;SDS011;7622;42.724;23.250;2023-03-19T01:32:37;15.17;;;7.87;;
15049;SDS011;7622;42.724;23.250;2023-03-19T01:35:04;12.80;;;7.97;;
15049;SDS011;7622;42.724;23.250;2023-03-19T01:37:32;11.70;;;7.57;;
15049;SDS011;7622;42.724;23.250;2023-03-19T01:39:59;8.43;;;7.03;;
15049;SDS011;7622;42.724;23.250;2023-03-19T01:42:27;10.63;;;7.03;;
15049;SDS011;7622;42.724;23.250;2023-03-19T01:44:53;10.80;;;6.97;;
15049;SDS011;7622;42.724;23.250;2023-03-19T01:47:23;8.97;;;7.07;;
15049;SDS011;7622;42.724;23.250;2023-03-19T01:49:55;10.70;;;7.13;;
15049;SDS011;7622;42.724;23.250;2023-03-19T01:52:24;11.43;;;6.93;;
15049;SDS011;7622;42.724;23.250;2023-03-19T01:54:54;10.43;;;6.70;;
15049;SDS011;7622;42.724;23.250;2023-03-19T01:57:23;10.47;;;6.57;;
15049;SDS011;7622;42.724;23.250;2023-03-19T01:59:52;12.57;;;6.90;;
15049;SDS011;7622;42.724;23.250;2023-03-19T02:02:23;11.47;;;7.07;;
15049;SDS011;7622;42.724;23.250;2023-03-19T02:04:55;9.87;;;7.87;;
15049;SDS011;7622;42.724;23.250;2023-03-19T02:07:26;15.47;;;9.50;;
15049;SDS011;7622;42.724;23.250;2023-03-19T02:09:54;18.93;;;10.40;;
15049;SDS011;7622;42.724;23.250;2023-03-19T02:12:22;21.90;;;12.07;;
15049;SDS011;7622;42.724;23.250;2023-03-19T02:14:48;18.20;;;10.33;;
15049;SDS011;7622;42.724;23.250;2023-03-19T02:17:17;26.53;;;11.43;;
15049;SDS011;7622;42.724;23.250;2023-03-19T02:19:46;24.93;;;11.53;;
15049;SDS011;7622;42.724;23.250;2023-03-19T02:22:19;13.77;;;9.43;;
15049;SDS011;7622;42.724;23.250;2023-03-19T02:24:49;16.07;;;9.97;;
15049;SDS011;7622;42.724;23.250;2023-03-19T02:27:20;16.57;;;10.67;;
15049;SDS011;7622;42.724;23.250;2023-03-19T02:29:47;11.47;;;7.60;;
15049;SDS011;7622;42.724;23.250;2023-03-19T02:32:14;13.37;;;8.13;;
15049;SDS011;7622;42.724;23.250;2023-03-19T02:34:41;18.00;;;9.77;;
15049;SDS011;7622;42.724;23.250;2023-03-19T02:37:10;12.27;;;9.20;;
15049;SDS011;7622;42.724;23.250;2023-03-19T02:39:42;16.17;;;9.20;;
15049;SDS011;7622;42.724;23.250;2023-03-19T02:42:16;14.60;;;8.67;;
15049;SDS011;7622;42.724;23.250;2023-03-19T02:44:46;14.03;;;9.23;;
15049;SDS011;7622;42.724;23.250;2023-03-19T02:47:13;15.67;;;10.37;;
15049;SDS011;7622;42.724;23.250;2023-03-19T02:49:41;14.90;;;9.83;;
15049;SDS011;7622;42.724;23.250;2023-03-19T02:52:08;14.07;;;10.17;;
15049;SDS011;7622;42.724;23.250;2023-03-19T02:54:35;14.30;;;10.13;;
15049;SDS011;7622;42.724;23.250;2023-03-19T02:57:01;13.93;;;9.90;;
15049;SDS011;7622;42.724;23.250;2023-03-19T02:59:28;12.43;;;9.03;;
15049;SDS011;7622;42.724;23.250;2023-03-19T03:01:57;16.13;;;10.10;;
15049;SDS011;7622;42.724;23.250;2023-03-19T03:04:23;14.67;;;10.20;;
15049;SDS011;7622;42.724;23.250;2023-03-19T03:06:51;15.30;;;9.40;;
15049;SDS011;7622;42.724;23.250;2023-03-19T03:09:18;11.73;;;8.47;;
15049;SDS011;7622;42.724;23.250;2023-03-19T03:11:45;14.03;;;10.17;;
15049;SDS011;7622;42.724;23.250;2023-03-19T03:14:12;13.90;;;9.13;;
15049;SDS011;7622;42.724;23.250;2023-03-19T03:16:39;20.43;;;9.53;;
15049;SDS011;7622;42.724;23.250;2023-03-19T03:19:07;15.90;;;9.47;;
15049;SDS011;7622;42.724;23.250;2023-03-19T03:21:34;14.70;;;8.87;;
15049;SDS011;7622;42.724;23.250;2023-03-19T03:24:00;14.13;;;9.07;;
15049;SDS011;7622;42.724;23.250;2023-03-19T03:26:28;17.43;;;10.60;;
15049;SDS011;7622;42.724;23.250;2023-03-19T03:28:55;15.50;;;8.80;;
15049;SDS011;7622;42.724;23.250;2023-03-19T03:31:21;14.47;;;8.63;;
15049;SDS011;7622;42.724;23.250;2023-03-19T03:33:48;13.97;;;8.87;;
15049;SDS011;7622;42.724;23.250;2023-03-19T03:36:17;14.90;;;9.90;;
15049;SDS011;7622;42.724;23.250;2023-03-19T03:38:44;13.60;;;8.03;;
15049;SDS011;7622;42.724;23.250;2023-03-19T03:41:10;13.00;;;7.90;;
15049;SDS011;7622;42.724;23.250;2023-03-19T03:43:37;13.57;;;7.97;;
15049;SDS011;7622;42.724;23.250;2023-03-19T03:46:05;15.13;;;8.43;;
15049;SDS011;7622;42.724;23.250;2023-03-19T03:48:32;12.37;;;7.97;;
15049;SDS011;7622;42.724;23.250;2023-03-19T03:51:00;13.03;;;8.07;;
15049;SDS011;7622;42.724;23.250;2023-03-19T03:53:28;9.70;;;7.00;;
15049;SDS011;7622;42.724;23.250;2023-03-19T03:55:55;10.53;;;7.47;;
15049;SDS011;7622;42.724;23.250;2023-03-19T03:58:22;12.47;;;8.40;;
15049;SDS011;7622;42.724;23.250;2023-03-19T04:00:50;12.13;;;8.53;;
15049;SDS011;7622;42.724;23.250;2023-03-19T04:03:16;10.33;;;7.80;;
15049;SDS011;7622;42.724;23.250;2023-03-19T04:05:43;12.13;;;7.10;;
15049;SDS011;7622;42.724;23.250;2023-03-19T04:08:10;14.03;;;6.97;;
15049;SDS011;7622;42.724;23.250;2023-03-19T04:10:39;8.40;;;6.20;;
15049;SDS011;7622;42.724;23.250;2023-03-19T04:13:07;9.23;;;6.23;;
15049;SDS011;7622;42.724;23.250;2023-03-19T04:15:34;12.73;;;7.00;;
15049;SDS011;7622;42.724;23.250;2023-03-19T04:18:02;8.30;;;6.13;;
15049;SDS011;7622;42.724;23.250;2023-03-19T04:20:29;11.93;;;7.07;;
15049;SDS011;7622;42.724;23.250;2023-03-19T04:22:56;10.30;;;7.00;;
15049;SDS011;7622;42.724;23.250;2023-03-19T04:25:22;12.33;;;7.37;;
15049;SDS011;7622;42.724;23.250;2023-03-19T04:27:51;10.80;;;6.03;;
15049;SDS011;7622;42.724;23.250;2023-03-19T04:30:18;10.57;;;6.77;;
15049;SDS011;7622;42.724;23.250;2023-03-19T04:32:45;9.07;;;6.33;;
15049;SDS011;7622;42.724;23.250;2023-03-19T04:35:12;8.83;;;5.53;;
15049;SDS011;7622;42.724;23.250;2023-03-19T04:37:39;11.43;;;6.23;;
15049;SDS011;7622;42.724;23.250;2023-03-19T04:40:08;10.13;;;6.43;;
15049;SDS011;7622;42.724;23.250;2023-03-19T04:42:36;9.50;;;7.80;;
15049;SDS011;7622;42.724;23.250;2023-03-19T04:45:05;11.27;;;6.33;;
15049;SDS011;7622;42.724;23.250;2023-03-19T04:47:32;9.17;;;6.60;;
15049;SDS011;7622;42.724;23.250;2023-03-19T04:49:59;11.57;;;7.03;;
15049;SDS011;7622;42.724;23.250;2023-03-19T04:52:25;11.63;;;6.70;;
15049;SDS011;7622;42.724;23.250;2023-03-19T04:54:54;9.60;;;6.87;;
15049;SDS011;7622;42.724;23.250;2023-03-19T04:57:20;11.03;;;6.27;;
15049;SDS011;7622;42.724;23.250;2023-03-19T04:59:47;10.67;;;6.57;;
15049;SDS011;7622;42.724;23.250;2023-03-19T05:02:16;12.73;;;8.03;;
15049;SDS011;7622;42.724;23.250;2023-03-19T05:04:43;14.30;;;8.30;;
15049;SDS011;7622;42.724;23.250;2023-03-19T05:07:09;9.17;;;7.13;;
15049;SDS011;7622;42.724;23.250;2023-03-19T05:09:36;13.67;;;7.93;;
15049;SDS011;7622;42.724;23.250;2023-03-19T05:12:03;13.10;;;7.67;;
15049;SDS011;7622;42.724;23.250;2023-03-19T05:14:30;9.27;;;7.13;;
15049;SDS011;7622;42.724;23.250;2023-03-19T05:16:57;15.27;;;7.67;;
15049;SDS011;7622;42.724;23.250;2023-03-19T05:19:26;13.63;;;8.13;;
15049;SDS011;7622;42.724;23.250;2023-03-19T05:21:52;10.00;;;7.30;;
15049;SDS011;7622;42.724;23.250;2023-03-19T05:24:21;13.53;;;7.87;;
15049;SDS011;7622;42.724;23.250;2023-03-19T05:26:48;9.70;;;6.80;;
15049;SDS011;7622;42.724;23.250;2023-03-19T05:29:14;10.27;;;7.33;;
15049;SDS011;7622;42.724;23.250;2023-03-19T05:31:41;9.87;;;7.00;;
15049;SDS011;7622;42.724;23.250;2023-03-19T05:34:08;12.13;;;7.67;;
15049;SDS011;7622;42.724;23.250;2023-03-19T05:36:36;11.23;;;7.90;;
15049;SDS011;7622;42.724;23.250;2023-03-19T05:39:03;15.20;;;8.57;;
15049;SDS011;7622;42.724;23.250;2023-03-19T05:41:30;16.37;;;10.20;;
15049;SDS011;7622;42.724;23.250;2023-03-19T05:43:57;19.53;;;10.70;;
15049;SDS011;7622;42.724;23.250;2023-03-19T05:46:23;14.70;;;9.77;;
15049;SDS011;7622;42.724;23.250;2023-03-19T05:48:51;21.33;;;10.53;;
15049;SDS011;7622;42.724;23.250;2023-03-19T05:51:18;13.03;;;9.07;;
15049;SDS011;7622;42.724;23.250;2023-03-19T05:53:46;14.70;;;9.17;;
15049;SDS011;7622;42.724;23.250;2023-03-19T05:56:13;14.30;;;10.23;;
15049;SDS011;7622;42.724;23.250;2023-03-19T05:58:40;17.03;;;10.37;;
15049;SDS011;7622;42.724;23.250;2023-03-19T06:01:07;17.93;;;10.97;;
15049;SDS011;7622;42.724;23.250;2023-03-19T06:03:33;18.63;;;11.70;;
15049;SDS011;7622;42.724;23.250;2023-03-19T06:06:00;18.63;;;11.07;;
15049;SDS011;7622;42.724;23.250;2023-03-19T06:08:27;16.47;;;10.23;;
15049;SDS011;7622;42.724;23.250;2023-03-19T06:10:55;18.47;;;11.10;;
15049;SDS011;7622;42.724;23.250;2023-03-19T06:13:22;18.47;;;10.73;;
15049;SDS011;7622;42.724;23.250;2023-03-19T06:15:49;14.90;;;10.03;;
15049;SDS011;7622;42.724;23.250;2023-03-19T06:18:16;16.20;;;10.40;;
15049;SDS011;7622;42.724;23.250;2023-03-19T06:20:45;20.97;;;9.67;;
15049;SDS011;7622;42.724;23.250;2023-03-19T06:23:12;16.77;;;11.67;;
15049;SDS011;7622;42.724;23.250;2023-03-19T06:25:39;19.07;;;11.57;;
15049;SDS011;7622;42.724;23.250;2023-03-19T06:28:07;16.97;;;10.13;;
15049;SDS011;7622;42.724;23.250;2023-03-19T06:30:34;16.67;;;10.40;;
15049;SDS011;7622;42.724;23.250;2023-03-19T06:33:01;19.60;;;11.20;;
15049;SDS011;7622;42.724;23.250;2023-03-19T06:35:28;23.07;;;10.73;;
15049;SDS011;7622;42.724;23.250;2023-03-19T06:37:55;23.83;;;12.23;;
15049;SDS011;7622;42.724;23.250;2023-03-19T06:40:21;20.70;;;12.07;;
15049;SDS011;7622;42.724;23.250;2023-03-19T06:42:48;24.57;;;11.77;;
15049;SDS011;7622;42.724;23.250;2023-03-19T06:45:16;23.83;;;11.13;;
15049;SDS011;7622;42.724;23.250;2023-03-19T06:47:44;22.33;;;10.93;;
15049;SDS011;7622;42.724;23.250;2023-03-19T06:50:12;18.80;;;10.40;;
15049;SDS011;7622;42.724;23.250;2023-03-19T06:52:40;20.50;;;12.75;;
15049;SDS011;7622;42.724;23.250;2023-03-19T06:55:07;18.00;;;12.30;;
15049;SDS011;7622;42.724;23.250;2023-03-19T06:57:35;31.87;;;20.37;;
15049;SDS011;7622;42.724;23.250;2023-03-19T07:00:02;26.40;;;14.77;;
15049;SDS011;7622;42.724;23.250;2023-03-19T07:02:31;18.40;;;11.90;;
15049;SDS011;7622;42.724;23.250;2023-03-19T07:04:58;20.70;;;12.73;;
15049;SDS011;7622;42.724;23.250;2023-03-19T07:07:25;20.27;;;11.97;;
15049;SDS011;7622;42.724;23.250;2023-03-19T07:09:51;20.90;;;12.90;;
15049;SDS011;7622;42.724;23.250;2023-03-19T07:12:18;16.70;;;11.13;;
15049;SDS011;7622;42.724;23.250;2023-03-19T07:14:45;22.53;;;12.27;;
15049;SDS011;7622;42.724;23.250;2023-03-19T07:17:11;20.27;;;12.73;;
15049;SDS011;7622;42.724;23.250;2023-03-19T07:19:40;16.83;;;11.30;;
15049;SDS011;7622;42.724;23.250;2023-03-19T07:22:06;18.30;;;11.70;;
15049;SDS011;7622;42.724;23.250;2023-03-19T07:24:33;17.90;;;11.37;;
15049;SDS011;7622;42.724;23.250;2023-03-19T07:27:00;21.13;;;11.73;;
15049;SDS011;7622;42.724;23.250;2023-03-19T07:29:27;21.37;;;11.77;;
15049;SDS011;7622;42.724;23.250;2023-03-19T07:31:55;17.93;;;12.03;;
15049;SDS011;7622;42.724;23.250;2023-03-19T07:34:22;18.40;;;12.40;;
15049;SDS011;7622;42.724;23.250;2023-03-19T07:36:50;16.70;;;11.17;;
15049;SDS011;7622;42.724;23.250;2023-03-19T07:39:17;18.30;;;11.70;;
15049;SDS011;7622;42.724;23.250;2023-03-19T07:41:44;17.33;;;12.17;;
15049;SDS011;7622;42.724;23.250;2023-03-19T07:44:12;17.57;;;11.67;;
15049;SDS011;7622;42.724;23.250;2023-03-19T07:46:39;20.53;;;11.53;;
15049;SDS011;7622;42.724;23.250;2023-03-19T07:49:06;17.07;;;12.30;;
15049;SDS011;7622;42.724;23.250;2023-03-19T07:51:33;19.50;;;12.63;;
15049;SDS011;7622;42.724;23.250;2023-03-19T07:54:02;17.33;;;11.47;;
15049;SDS011;7622;42.724;23.250;2023-03-19T07:56:29;18.10;;;13.17;;
15049;SDS011;7622;42.724;23.250;2023-03-19T07:58:56;18.93;;;12.37;;
15049;SDS011;7622;42.724;23.250;2023-03-19T08:01:23;21.73;;;12.00;;
15049;SDS011;7622;42.724;23.250;2023-03-19T08:03:50;17.13;;;11.90;;
15049;SDS011;7622;42.724;23.250;2023-03-19T08:06:17;16.67;;;11.57;;
15049;SDS011;7622;42.724;23.250;2023-03-19T08:08:44;16.67;;;12.07;;
15049;SDS011;7622;42.724;23.250;2023-03-19T08:11:12;23.43;;;12.97;;
15049;SDS011;7622;42.724;23.250;2023-03-19T08:13:39;20.80;;;13.20;;
15049;SDS011;7622;42.724;23.250;2023-03-19T08:16:06;18.77;;;13.70;;
15049;SDS011;7622;42.724;23.250;2023-03-19T08:18:33;23.47;;;13.67;;
15049;SDS011;7622;42.724;23.250;2023-03-19T08:21:00;30.77;;;13.53;;
15049;SDS011;7622;42.724;23.250;2023-03-19T08:23:28;27.40;;;13.77;;
15049;SDS011;7622;42.724;23.250;2023-03-19T08:25:54;21.33;;;12.77;;
15049;SDS011;7622;42.724;23.250;2023-03-19T08:28:22;21.37;;;13.40;;
15049;SDS011;7622;42.724;23.250;2023-03-19T08:30:49;21.33;;;13.80;;
15049;SDS011;7622;42.724;23.250;2023-03-19T08:33:16;14.43;;;11.57;;
15049;SDS011;7622;42.724;23.250;2023-03-19T08:35:43;21.63;;;10.17;;
15049;SDS011;7622;42.724;23.250;2023-03-19T08:38:09;15.33;;;10.30;;
15049;SDS011;7622;42.724;23.250;2023-03-19T08:40:36;17.93;;;10.73;;
15049;SDS011;7622;42.724;23.250;2023-03-19T08:43:03;14.40;;;10.00;;
15049;SDS011;7622;42.724;23.250;2023-03-19T08:45:32;13.03;;;11.00;;
15049;SDS011;7622;42.724;23.250;2023-03-19T08:47:59;14.87;;;9.83;;
15049;SDS011;7622;42.724;23.250;2023-03-19T08:50:25;15.67;;;9.73;;
15049;SDS011;7622;42.724;23.250;2023-03-19T08:52:52;13.33;;;10.20;;
15049;SDS011;7622;42.724;23.250;2023-03-19T08:55:20;14.20;;;10.00;;
15049;SDS011;7622;42.724;23.250;2023-03-19T08:57:46;11.80;;;8.93;;
15049;SDS011;7622;42.724;23.250;2023-03-19T09:00:14;11.80;;;9.03;;
15049;SDS011;7622;42.724;23.250;2023-03-19T09:02:43;44.77;;;10.77;;
15049;SDS011;7622;42.724;23.250;2023-03-19T09:05:09;14.70;;;9.67;;
15049;SDS011;7622;42.724;23.250;2023-03-19T09:07:36;9.87;;;8.07;;
15049;SDS011;7622;42.724;23.250;2023-03-19T09:10:03;9.93;;;8.23;;
15049;SDS011;7622;42.724;23.250;2023-03-19T09:12:31;11.40;;;8.67;;
15049;SDS011;7622;42.724;23.250;2023-03-19T09:14:58;11.57;;;9.87;;
15049;SDS011;7622;42.724;23.250;2023-03-19T09:17:24;10.20;;;8.47;;
15049;SDS011;7622;42.724;23.250;2023-03-19T09:19:53;16.30;;;9.53;;
15049;SDS011;7622;42.724;23.250;2023-03-19T09:22:19;18.57;;;10.07;;
15049;SDS011;7622;42.724;23.250;2023-03-19T09:24:46;14.83;;;10.23;;
15049;SDS011;7622;42.724;23.250;2023-03-19T09:27:13;10.30;;;9.07;;
15049;SDS011;7622;42.724;23.250;2023-03-19T09:29:39;11.37;;;9.30;;
15049;SDS011;7622;42.724;23.250;2023-03-19T09:32:06;12.33;;;9.20;;
15049;SDS011;7622;42.724;23.250;2023-03-19T09:34:33;14.33;;;9.60;;
15049;SDS011;7622;42.724;23.250;2023-03-19T09:37:01;9.17;;;8.27;;
15049;SDS011;7622;42.724;23.250;2023-03-19T09:39:28;7.50;;;6.90;;
15049;SDS011;7622;42.724;23.250;2023-03-19T09:41:59;10.13;;;7.97;;
15049;SDS011;7622;42.724;23.250;2023-03-19T09:44:36;7.87;;;7.17;;
15049;SDS011;7622;42.724;23.250;2023-03-19T09:47:09;6.90;;;6.20;;
15049;SDS011;7622;42.724;23.250;2023-03-19T09:49:49;7.47;;;6.07;;
15049;SDS011;7622;42.724;23.250;2023-03-19T09:52:23;5.87;;;5.27;;
15049;SDS011;7622;42.724;23.250;2023-03-19T09:54:59;6.67;;;5.53;;
15049;SDS011;7622;42.724;23.250;2023-03-19T09:57:32;5.07;;;4.67;;
15049;SDS011;7622;42.724;23.250;2023-03-19T10:00:07;4.87;;;4.40;;
15049;SDS011;7622;42.724;23.250;2023-03-19T10:02:46;5.43;;;3.70;;
15049;SDS011;7622;42.724;23.250;2023-03-19T10:05:21;5.20;;;4.67;;
15049;SDS011;7622;42.724;23.250;2023-03-19T10:10:54;5.17;;;4.70;;
15049;SDS011;7622;42.724;23.250;2023-03-19T10:13:34;5.30;;;4.70;;
15049;SDS011;7622;42.724;23.250;2023-03-19T10:16:13;7.50;;;5.17;;
15049;SDS011;7622;42.724;23.250;2023-03-19T10:18:46;10.57;;;5.67;;
15049;SDS011;7622;42.724;23.250;2023-03-19T10:21:17;34.93;;;10.30;;
15049;SDS011;7622;42.724;23.250;2023-03-19T10:23:49;15.40;;;5.77;;
15049;SDS011;7622;42.724;23.250;2023-03-19T10:26:20;6.50;;;5.83;;
15049;SDS011;7622;42.724;23.250;2023-03-19T10:28:52;6.40;;;5.57;;
15049;SDS011;7622;42.724;23.250;2023-03-19T10:31:39;8.77;;;5.23;;
15049;SDS011;7622;42.724;23.250;2023-03-19T10:34:13;6.27;;;5.23;;
15049;SDS011;7622;42.724;23.250;2023-03-19T10:36:46;8.73;;;5.60;;
15049;SDS011;7622;42.724;23.250;2023-03-19T10:39:14;5.30;;;4.80;;
15049;SDS011;7622;42.724;23.250;2023-03-19T10:41:45;5.50;;;5.00;;
15049;SDS011;7622;42.724;23.250;2023-03-19T10:44:25;6.97;;;5.20;;
15049;SDS011;7622;42.724;23.250;2023-03-19T10:46:58;11.95;;;6.20;;
15049;SDS011;7622;42.724;23.250;2023-03-19T10:49:35;8.47;;;4.83;;
15049;SDS011;7622;42.724;23.250;2023-03-19T10:52:02;7.00;;;5.33;;
15049;SDS011;7622;42.724;23.250;2023-03-19T10:54:31;6.07;;;5.13;;
15049;SDS011;7622;42.724;23.250;2023-03-19T10:56:58;10.37;;;5.43;;
15049;SDS011;7622;42.724;23.250;2023-03-19T10:59:26;4.93;;;4.50;;
15049;SDS011;7622;42.724;23.250;2023-03-19T11:01:58;13.00;;;5.37;;
15049;SDS011;7622;42.724;23.250;2023-03-19T11:04:28;7.67;;;4.93;;
15049;SDS011;7622;42.724;23.250;2023-03-19T11:07:01;5.23;;;4.77;;
15049;SDS011;7622;42.724;23.250;2023-03-19T11:09:36;7.10;;;4.77;;
15049;SDS011;7622;42.724;23.250;2023-03-19T11:12:05;5.23;;;4.10;;
15049;SDS011;7622;42.724;23.250;2023-03-19T11:14:40;5.27;;;4.53;;
15049;SDS011;7622;42.724;23.250;2023-03-19T11:17:15;5.33;;;4.23;;
15049;SDS011;7622;42.724;23.250;2023-03-19T11:19:48;4.80;;;4.40;;
15049;SDS011;7622;42.724;23.250;2023-03-19T11:22:18;5.93;;;4.70;;
15049;SDS011;7622;42.724;23.250;2023-03-19T11:24:50;4.67;;;4.13;;
15049;SDS011;7622;42.724;23.250;2023-03-19T11:27:20;6.00;;;4.53;;
15049;SDS011;7622;42.724;23.250;2023-03-19T11:29:52;5.83;;;4.80;;
15049;SDS011;7622;42.724;23.250;2023-03-19T11:32:24;8.00;;;4.90;;
15049;SDS011;7622;42.724;23.250;2023-03-19T11:35:01;8.77;;;5.10;;
15049;SDS011;7622;42.724;23.250;2023-03-19T11:37:39;7.10;;;5.03;;
15049;SDS011;7622;42.724;23.250;2023-03-19T11:40:19;5.00;;;4.60;;
15049;SDS011;7622;42.724;23.250;2023-03-19T11:42:58;7.37;;;5.20;;
15049;SDS011;7622;42.724;23.250;2023-03-19T11:45:38;6.10;;;4.87;;
15049;SDS011;7622;42.724;23.250;2023-03-19T11:48:15;10.70;;;5.10;;
15049;SDS011;7622;42.724;23.250;2023-03-19T11:50:48;46.37;;;32.67;;
15049;SDS011;7622;42.724;23.250;2023-03-19T11:53:20;25.00;;;15.03;;
15049;SDS011;7622;42.724;23.250;2023-03-19T11:55:59;6.47;;;5.63;;
15049;SDS011;7622;42.724;23.250;2023-03-19T11:58:41;6.43;;;4.77;;
15049;SDS011;7622;42.724;23.250;2023-03-19T12:01:29;7.37;;;4.90;;
15049;SDS011;7622;42.724;23.250;2023-03-19T12:07:03;5.97;;;4.57;;
15049;SDS011;7622;42.724;23.250;2023-03-19T12:09:39;4.77;;;4.30;;
15049;SDS011;7622;42.724;23.250;2023-03-19T12:12:17;6.03;;;5.43;;
15049;SDS011;7622;42.724;23.250;2023-03-19T12:15:00;6.80;;;5.93;;
15049;SDS011;7622;42.724;23.250;2023-03-19T12:17:45;9.33;;;4.80;;
15049;SDS011;7622;42.724;23.250;2023-03-19T12:20:27;8.27;;;4.70;;
15049;SDS011;7622;42.724;23.250;2023-03-19T12:23:07;8.17;;;5.10;;
15049;SDS011;7622;42.724;23.250;2023-03-19T12:25:58;6.43;;;4.83;;
15049;SDS011;7622;42.724;23.250;2023-03-19T12:28:31;6.47;;;4.87;;
15049;SDS011;7622;42.724;23.250;2023-03-19T12:31:10;7.93;;;4.87;;
15049;SDS011;7622;42.724;23.250;2023-03-19T12:33:56;5.90;;;4.93;;
15049;SDS011;7622;42.724;23.250;2023-03-19T12:36:35;6.80;;;4.37;;
15049;SDS011;7622;42.724;23.250;2023-03-19T12:39:09;7.93;;;4.57;;
15049;SDS011;7622;42.724;23.250;2023-03-19T12:41:40;6.13;;;4.40;;
15049;SDS011;7622;42.724;23.250;2023-03-19T12:44:12;6.97;;;4.10;;
15049;SDS011;7622;42.724;23.250;2023-03-19T12:46:44;4.67;;;4.20;;
15049;SDS011;7622;42.724;23.250;2023-03-19T12:49:18;6.30;;;4.93;;
15049;SDS011;7622;42.724;23.250;2023-03-19T12:51:51;5.43;;;4.47;;
15049;SDS011;7622;42.724;23.250;2023-03-19T12:54:22;7.47;;;4.40;;
15049;SDS011;7622;42.724;23.250;2023-03-19T12:56:54;4.77;;;4.27;;
15049;SDS011;7622;42.724;23.250;2023-03-19T12:59:27;6.97;;;4.60;;
15049;SDS011;7622;42.724;23.250;2023-03-19T13:02:02;6.63;;;4.00;;
15049;SDS011;7622;42.724;23.250;2023-03-19T13:04:37;7.67;;;3.63;;
15049;SDS011;7622;42.724;23.250;2023-03-19T13:07:09;4.47;;;4.00;;
15049;SDS011;7622;42.724;23.250;2023-03-19T13:09:43;7.07;;;3.47;;
15049;SDS011;7622;42.724;23.250;2023-03-19T13:12:17;5.30;;;3.57;;
15049;SDS011;7622;42.724;23.250;2023-03-19T13:14:51;5.30;;;3.87;;
15049;SDS011;7622;42.724;23.250;2023-03-19T13:17:25;6.40;;;3.67;;
15049;SDS011;7622;42.724;23.250;2023-03-19T13:19:56;23.90;;;4.43;;
15049;SDS011;7622;42.724;23.250;2023-03-19T13:22:27;5.77;;;3.80;;
15049;SDS011;7622;42.724;23.250;2023-03-19T13:24:58;5.77;;;4.23;;
15049;SDS011;7622;42.724;23.250;2023-03-19T13:27:28;3.77;;;3.47;;
15049;SDS011;7622;42.724;23.250;2023-03-19T13:29:59;3.40;;;3.10;;
15049;SDS011;7622;42.724;23.250;2023-03-19T13:32:35;4.63;;;3.53;;
15049;SDS011;7622;42.724;23.250;2023-03-19T13:35:16;4.83;;;3.30;;
15049;SDS011;7622;42.724;23.250;2023-03-19T13:37:54;3.53;;;3.23;;
15049;SDS011;7622;42.724;23.250;2023-03-19T13:40:36;7.23;;;3.43;;
15049;SDS011;7622;42.724;23.250;2023-03-19T13:43:19;5.03;;;3.57;;
15049;SDS011;7622;42.724;23.250;2023-03-19T13:46:03;4.50;;;3.53;;
15049;SDS011;7622;42.724;23.250;2023-03-19T13:48:51;3.80;;;3.33;;
15049;SDS011;7622;42.724;23.250;2023-03-19T13:51:23;9.67;;;3.80;;
15049;SDS011;7622;42.724;23.250;2023-03-19T13:53:54;4.87;;;3.40;;
15049;SDS011;7622;42.724;23.250;2023-03-19T13:56:35;5.57;;;3.87;;
15049;SDS011;7622;42.724;23.250;2023-03-19T13:59:31;27.77;;;4.50;;
15049;SDS011;7622;42.724;23.250;2023-03-19T14:02:01;5.03;;;3.73;;
15049;SDS011;7622;42.724;23.250;2023-03-19T14:04:49;3.90;;;3.17;;
15049;SDS011;7622;42.724;23.250;2023-03-19T14:07:20;4.87;;;3.77;;
15049;SDS011;7622;42.724;23.250;2023-03-19T14:10:01;51.23;;;36.77;;
15049;SDS011;7622;42.724;23.250;2023-03-19T14:12:33;17.00;;;9.23;;
15049;SDS011;7622;42.724;23.250;2023-03-19T14:15:02;7.63;;;5.03;;
15049;SDS011;7622;42.724;23.250;2023-03-19T14:17:40;4.63;;;4.10;;
15049;SDS011;7622;42.724;23.250;2023-03-19T14:20:21;4.13;;;3.73;;
15049;SDS011;7622;42.724;23.250;2023-03-19T14:22:54;5.93;;;3.93;;
15049;SDS011;7622;42.724;23.250;2023-03-19T14:25:50;4.20;;;3.37;;
15049;SDS011;7622;42.724;23.250;2023-03-19T14:28:20;4.63;;;3.37;;
15049;SDS011;7622;42.724;23.250;2023-03-19T14:30:54;6.07;;;4.20;;
15049;SDS011;7622;42.724;23.250;2023-03-19T14:33:22;3.40;;;3.10;;
15049;SDS011;7622;42.724;23.250;2023-03-19T14:35:51;5.33;;;3.47;;
15049;SDS011;7622;42.724;23.250;2023-03-19T14:38:21;4.13;;;3.00;;
15049;SDS011;7622;42.724;23.250;2023-03-19T14:40:57;3.27;;;2.97;;
15049;SDS011;7622;42.724;23.250;2023-03-19T14:43:31;6.67;;;4.03;;
15049;SDS011;7622;42.724;23.250;2023-03-19T14:46:17;7.17;;;3.77;;
15049;SDS011;7622;42.724;23.250;2023-03-19T14:51:49;3.63;;;3.33;;
15049;SDS011;7622;42.724;23.250;2023-03-19T14:54:26;5.40;;;3.87;;
15049;SDS011;7622;42.724;23.250;2023-03-19T14:57:04;3.90;;;3.53;;
15049;SDS011;7622;42.724;23.250;2023-03-19T14:59:36;5.40;;;3.73;;
15049;SDS011;7622;42.724;23.250;2023-03-19T15:02:04;5.37;;;3.93;;